sensor_id;sensor_type;location;lat;lon;timestamp;P1;durP1;ratioP1;P2;durP2;ratioP2
6523;SDS011;3295;38.928;-77.052;2023-06-22T00:00:53;4.47;;;1.43;;
6523;SDS011;3295;38.928;-77.052;2023-06-22T00:03:21;1.93;;;1.40;;
6523;SDS011;3295;38.928;-77.052;2023-06-22T00:05:51;2.70;;;1.43;;
6523;SDS011;3295;38.928;-77.052;2023-06-22T00:08:19;3.00;;;1.57;;
6523;SDS011;3295;38.928;-77.052;2023-06-22T00:10:51;2.77;;;1.50;;
6523;SDS011;3295;38.928;-77.052;2023-06-22T00:13:18;3.10;;;1.60;;
6523;SDS011;3295;38.928;-77.052;2023-06-22T00:15:46;2.63;;;1.70;;
6523;SDS011;3295;38.928;-77.052;2023-06-22T00:18:13;4.97;;;4.30;;
6523;SDS011;3295;38.928;-77.052;2023-06-22T00:20:42;1.50;;;1.30;;
6523;SDS011;3295;38.928;-77.052;2023-06-22T00:23:12;2.13;;;1.47;;
6523;SDS011;3295;38.928;-77.052;2023-06-22T00:25:42;2.23;;;1.30;;
6523;SDS011;3295;38.928;-77.052;2023-06-22T00:28:10;2.47;;;1.30;;
6523;SDS011;3295;38.928;-77.052;2023-06-22T00:30:37;3.53;;;1.50;;
6523;SDS011;3295;38.928;-77.052;2023-06-22T00:33:05;4.13;;;1.73;;
6523;SDS011;3295;38.928;-77.052;2023-06-22T00:35:33;3.00;;;1.67;;
6523;SDS011;3295;38.928;-77.052;2023-06-22T00:38:01;2.57;;;1.37;;
6523;SDS011;3295;38.928;-77.052;2023-06-22T00:40:32;2.27;;;1.40;;
6523;SDS011;3295;38.928;-77.052;2023-06-22T00:43:00;1.57;;;1.10;;
6523;SDS011;3295;38.928;-77.052;2023-06-22T00:45:27;2.23;;;1.67;;
6523;SDS011;3295;38.928;-77.052;2023-06-22T00:47:57;3.47;;;1.20;;
6523;SDS011;3295;38.928;-77.052;2023-06-22T00:50:26;2.57;;;1.40;;
6523;SDS011;3295;38.928;-77.052;2023-06-22T00:52:54;1.73;;;1.27;;
6523;SDS011;3295;38.928;-77.052;2023-06-22T00:55:24;1.87;;;1.20;;
6523;SDS011;3295;38.928;-77.052;2023-06-22T00:57:53;3.30;;;1.27;;
6523;SDS011;3295;38.928;-77.052;2023-06-22T01:00:22;2.13;;;1.40;;
6523;SDS011;3295;38.928;-77.052;2023-06-22T01:02:50;1.50;;;1.30;;
6523;SDS011;3295;38.928;-77.052;2023-06-22T01:05:18;3.03;;;1.43;;
6523;SDS011;3295;38.928;-77.052;2023-06-22T01:07:51;1.90;;;1.30;;
6523;SDS011;3295;38.928;-77.052;2023-06-22T01:10:22;6.23;;;1.57;;
6523;SDS011;3295;38.928;-77.052;2023-06-22T01:12:53;2.10;;;1.53;;
6523;SDS011;3295;38.928;-77.052;2023-06-22T01:15:23;2.27;;;1.20;;
6523;SDS011;3295;38.928;-77.052;2023-06-22T01:17:52;3.80;;;1.30;;
6523;SDS011;3295;38.928;-77.052;2023-06-22T01:20:20;2.97;;;1.20;;
6523;SDS011;3295;38.928;-77.052;2023-06-22T01:22:53;2.97;;;1.20;;
6523;SDS011;3295;38.928;-77.052;2023-06-22T01:25:28;1.40;;;1.20;;
6523;SDS011;3295;38.928;-77.052;2023-06-22T01:28:03;1.80;;;1.30;;
6523;SDS011;3295;38.928;-77.052;2023-06-22T01:30:34;9.37;;;1.97;;
6523;SDS011;3295;38.928;-77.052;2023-06-22T01:33:05;2.73;;;1.70;;
6523;SDS011;3295;38.928;-77.052;2023-06-22T01:35:34;1.67;;;1.30;;
6523;SDS011;3295;38.928;-77.052;2023-06-22T01:38:02;2.33;;;1.17;;
6523;SDS011;3295;38.928;-77.052;2023-06-22T01:40:32;3.30;;;1.43;;
6523;SDS011;3295;38.928;-77.052;2023-06-22T01:43:02;2.33;;;1.40;;
6523;SDS011;3295;38.928;-77.052;2023-06-22T01:45:30;2.27;;;1.40;;
6523;SDS011;3295;38.928;-77.052;2023-06-22T01:47:59;3.23;;;1.50;;
6523;SDS011;3295;38.928;-77.052;2023-06-22T01:50:28;3.47;;;1.50;;
6523;SDS011;3295;38.928;-77.052;2023-06-22T01:52:56;4.97;;;1.20;;
6523;SDS011;3295;38.928;-77.052;2023-06-22T01:55:24;1.70;;;1.40;;
6523;SDS011;3295;38.928;-77.052;2023-06-22T01:57:52;3.00;;;1.27;;
6523;SDS011;3295;38.928;-77.052;2023-06-22T02:00:20;2.30;;;1.30;;
6523;SDS011;3295;38.928;-77.052;2023-06-22T02:02:53;2.83;;;1.33;;
6523;SDS011;3295;38.928;-77.052;2023-06-22T02:05:31;3.23;;;1.47;;
6523;SDS011;3295;38.928;-77.052;2023-06-22T02:08:02;3.10;;;1.30;;
6523;SDS011;3295;38.928;-77.052;2023-06-22T02:10:31;2.10;;;1.30;;
6523;SDS011;3295;38.928;-77.052;2023-06-22T02:13:00;2.50;;;1.33;;
6523;SDS011;3295;38.928;-77.052;2023-06-22T02:15:28;4.90;;;1.50;;
6523;SDS011;3295;38.928;-77.052;2023-06-22T02:17:55;2.97;;;1.83;;
6523;SDS011;3295;38.928;-77.052;2023-06-22T02:20:23;2.37;;;1.60;;
6523;SDS011;3295;38.928;-77.052;2023-06-22T02:22:52;1.80;;;1.23;;
6523;SDS011;3295;38.928;-77.052;2023-06-22T02:25:20;3.33;;;1.60;;
6523;SDS011;3295;38.928;-77.052;2023-06-22T02:27:47;3.77;;;1.53;;
6523;SDS011;3295;38.928;-77.052;2023-06-22T02:30:14;3.80;;;1.73;;
6523;SDS011;3295;38.928;-77.052;2023-06-22T02:32:41;2.23;;;1.50;;
6523;SDS011;3295;38.928;-77.052;2023-06-22T02:35:09;2.57;;;1.60;;
6523;SDS011;3295;38.928;-77.052;2023-06-22T02:37:36;3.00;;;1.33;;
6523;SDS011;3295;38.928;-77.052;2023-06-22T02:40:09;2.67;;;1.57;;
6523;SDS011;3295;38.928;-77.052;2023-06-22T02:42:36;4.13;;;1.90;;
6523;SDS011;3295;38.928;-77.052;2023-06-22T02:45:04;3.73;;;1.60;;
6523;SDS011;3295;38.928;-77.052;2023-06-22T02:47:31;5.43;;;2.07;;
6523;SDS011;3295;38.928;-77.052;2023-06-22T02:49:58;3.53;;;1.50;;
6523;SDS011;3295;38.928;-77.052;2023-06-22T02:52:26;1.70;;;1.40;;
6523;SDS011;3295;38.928;-77.052;2023-06-22T02:54:54;3.77;;;1.83;;
6523;SDS011;3295;38.928;-77.052;2023-06-22T02:57:25;2.23;;;1.30;;
6523;SDS011;3295;38.928;-77.052;2023-06-22T02:59:52;3.17;;;1.60;;
6523;SDS011;3295;38.928;-77.052;2023-06-22T03:02:20;4.27;;;1.60;;
6523;SDS011;3295;38.928;-77.052;2023-06-22T03:04:48;3.90;;;1.50;;
6523;SDS011;3295;38.928;-77.052;2023-06-22T03:07:15;2.90;;;1.50;;
6523;SDS011;3295;38.928;-77.052;2023-06-22T03:09:46;3.43;;;1.67;;
6523;SDS011;3295;38.928;-77.052;2023-06-22T03:12:13;1.73;;;1.47;;
6523;SDS011;3295;38.928;-77.052;2023-06-22T03:14:45;2.47;;;1.60;;
6523;SDS011;3295;38.928;-77.052;2023-06-22T03:17:13;3.00;;;1.70;;
6523;SDS011;3295;38.928;-77.052;2023-06-22T03:19:41;3.70;;;1.70;;
6523;SDS011;3295;38.928;-77.052;2023-06-22T03:22:08;4.43;;;1.60;;
6523;SDS011;3295;38.928;-77.052;2023-06-22T03:24:35;3.53;;;1.30;;
6523;SDS011;3295;38.928;-77.052;2023-06-22T03:27:04;2.53;;;1.70;;
6523;SDS011;3295;38.928;-77.052;2023-06-22T03:29:32;3.50;;;1.57;;
6523;SDS011;3295;38.928;-77.052;2023-06-22T03:32:01;1.73;;;1.50;;
6523;SDS011;3295;38.928;-77.052;2023-06-22T03:34:30;3.20;;;1.70;;
6523;SDS011;3295;38.928;-77.052;2023-06-22T03:36:59;3.73;;;1.77;;
6523;SDS011;3295;38.928;-77.052;2023-06-22T03:39:26;3.33;;;1.47;;
6523;SDS011;3295;38.928;-77.052;2023-06-22T03:41:53;2.43;;;1.50;;
6523;SDS011;3295;38.928;-77.052;2023-06-22T03:44:21;2.00;;;1.40;;
6523;SDS011;3295;38.928;-77.052;2023-06-22T03:46:48;2.03;;;1.50;;
6523;SDS011;3295;38.928;-77.052;2023-06-22T03:49:17;2.77;;;1.43;;
6523;SDS011;3295;38.928;-77.052;2023-06-22T03:51:44;2.40;;;1.67;;
6523;SDS011;3295;38.928;-77.052;2023-06-22T03:54:11;2.67;;;1.50;;
6523;SDS011;3295;38.928;-77.052;2023-06-22T03:56:39;2.20;;;1.40;;
6523;SDS011;3295;38.928;-77.052;2023-06-22T03:59:06;3.23;;;1.73;;
6523;SDS011;3295;38.928;-77.052;2023-06-22T04:01:34;3.70;;;1.37;;
6523;SDS011;3295;38.928;-77.052;2023-06-22T04:04:02;1.93;;;1.50;;
6523;SDS011;3295;38.928;-77.052;2023-06-22T04:06:31;3.77;;;1.70;;
6523;SDS011;3295;38.928;-77.052;2023-06-22T04:08:59;3.87;;;1.50;;
6523;SDS011;3295;38.928;-77.052;2023-06-22T04:11:27;3.27;;;1.60;;
6523;SDS011;3295;38.928;-77.052;2023-06-22T04:13:55;2.77;;;1.70;;
6523;SDS011;3295;38.928;-77.052;2023-06-22T04:16:23;2.50;;;1.73;;
6523;SDS011;3295;38.928;-77.052;2023-06-22T04:18:51;1.90;;;1.40;;
6523;SDS011;3295;38.928;-77.052;2023-06-22T04:21:18;1.63;;;1.40;;
6523;SDS011;3295;38.928;-77.052;2023-06-22T04:23:47;4.87;;;2.00;;
6523;SDS011;3295;38.928;-77.052;2023-06-22T04:26:15;2.80;;;1.60;;
6523;SDS011;3295;38.928;-77.052;2023-06-22T04:28:44;2.73;;;1.43;;
6523;SDS011;3295;38.928;-77.052;2023-06-22T04:31:17;1.50;;;1.37;;
6523;SDS011;3295;38.928;-77.052;2023-06-22T04:33:45;2.67;;;1.70;;
6523;SDS011;3295;38.928;-77.052;2023-06-22T04:36:12;2.63;;;1.50;;
6523;SDS011;3295;38.928;-77.052;2023-06-22T04:38:40;2.93;;;1.60;;
6523;SDS011;3295;38.928;-77.052;2023-06-22T04:41:12;2.87;;;1.40;;
6523;SDS011;3295;38.928;-77.052;2023-06-22T04:43:48;1.83;;;1.13;;
6523;SDS011;3295;38.928;-77.052;2023-06-22T04:46:19;4.50;;;1.70;;
6523;SDS011;3295;38.928;-77.052;2023-06-22T04:48:46;2.40;;;1.50;;
6523;SDS011;3295;38.928;-77.052;2023-06-22T04:51:17;4.27;;;1.70;;
6523;SDS011;3295;38.928;-77.052;2023-06-22T04:53:47;3.77;;;1.90;;
6523;SDS011;3295;38.928;-77.052;2023-06-22T04:56:17;4.90;;;2.00;;
6523;SDS011;3295;38.928;-77.052;2023-06-22T04:58:47;2.27;;;1.70;;
6523;SDS011;3295;38.928;-77.052;2023-06-22T05:01:17;4.07;;;1.43;;
6523;SDS011;3295;38.928;-77.052;2023-06-22T05:03:44;4.13;;;1.70;;
6523;SDS011;3295;38.928;-77.052;2023-06-22T05:06:13;5.53;;;1.80;;
6523;SDS011;3295;38.928;-77.052;2023-06-22T05:08:41;1.87;;;1.53;;
6523;SDS011;3295;38.928;-77.052;2023-06-22T05:11:08;2.93;;;1.80;;
6523;SDS011;3295;38.928;-77.052;2023-06-22T05:13:37;1.90;;;1.33;;
6523;SDS011;3295;38.928;-77.052;2023-06-22T05:16:04;2.70;;;1.77;;
6523;SDS011;3295;38.928;-77.052;2023-06-22T05:18:32;5.20;;;2.00;;
6523;SDS011;3295;38.928;-77.052;2023-06-22T05:21:00;3.47;;;1.67;;
6523;SDS011;3295;38.928;-77.052;2023-06-22T05:23:28;5.70;;;1.70;;
6523;SDS011;3295;38.928;-77.052;2023-06-22T05:25:55;6.10;;;2.00;;
6523;SDS011;3295;38.928;-77.052;2023-06-22T05:28:23;4.07;;;1.80;;
6523;SDS011;3295;38.928;-77.052;2023-06-22T05:30:52;4.03;;;1.90;;
6523;SDS011;3295;38.928;-77.052;2023-06-22T05:33:19;3.53;;;1.70;;
6523;SDS011;3295;38.928;-77.052;2023-06-22T05:35:46;6.10;;;1.70;;
6523;SDS011;3295;38.928;-77.052;2023-06-22T05:38:13;2.03;;;1.57;;
6523;SDS011;3295;38.928;-77.052;2023-06-22T05:40:41;3.50;;;1.73;;
6523;SDS011;3295;38.928;-77.052;2023-06-22T05:43:08;4.17;;;2.00;;
6523;SDS011;3295;38.928;-77.052;2023-06-22T05:45:35;2.60;;;1.70;;
6523;SDS011;3295;38.928;-77.052;2023-06-22T05:48:05;2.67;;;1.80;;
6523;SDS011;3295;38.928;-77.052;2023-06-22T05:50:32;2.47;;;1.60;;
6523;SDS011;3295;38.928;-77.052;2023-06-22T05:52:59;3.40;;;1.77;;
6523;SDS011;3295;38.928;-77.052;2023-06-22T05:55:28;3.90;;;1.90;;
6523;SDS011;3295;38.928;-77.052;2023-06-22T05:57:57;3.40;;;1.53;;
6523;SDS011;3295;38.928;-77.052;2023-06-22T06:00:24;4.23;;;1.53;;
6523;SDS011;3295;38.928;-77.052;2023-06-22T06:02:51;1.93;;;1.53;;
6523;SDS011;3295;38.928;-77.052;2023-06-22T06:05:20;3.03;;;1.37;;
6523;SDS011;3295;38.928;-77.052;2023-06-22T06:07:48;2.17;;;1.43;;
6523;SDS011;3295;38.928;-77.052;2023-06-22T06:10:16;4.27;;;1.80;;
6523;SDS011;3295;38.928;-77.052;2023-06-22T06:12:43;3.00;;;1.60;;
6523;SDS011;3295;38.928;-77.052;2023-06-22T06:15:10;2.30;;;1.60;;
6523;SDS011;3295;38.928;-77.052;2023-06-22T06:17:44;2.37;;;1.40;;
6523;SDS011;3295;38.928;-77.052;2023-06-22T06:20:12;3.03;;;1.70;;
6523;SDS011;3295;38.928;-77.052;2023-06-22T06:22:43;1.73;;;1.43;;
6523;SDS011;3295;38.928;-77.052;2023-06-22T06:25:10;4.73;;;1.60;;
6523;SDS011;3295;38.928;-77.052;2023-06-22T06:27:41;2.43;;;1.57;;
6523;SDS011;3295;38.928;-77.052;2023-06-22T06:30:09;2.83;;;1.40;;
6523;SDS011;3295;38.928;-77.052;2023-06-22T06:32:36;2.20;;;1.47;;
6523;SDS011;3295;38.928;-77.052;2023-06-22T06:35:04;3.43;;;1.50;;
6523;SDS011;3295;38.928;-77.052;2023-06-22T06:37:35;3.53;;;1.50;;
6523;SDS011;3295;38.928;-77.052;2023-06-22T06:40:05;2.10;;;1.40;;
6523;SDS011;3295;38.928;-77.052;2023-06-22T06:42:34;1.83;;;1.27;;
6523;SDS011;3295;38.928;-77.052;2023-06-22T06:45:03;2.20;;;1.50;;
6523;SDS011;3295;38.928;-77.052;2023-06-22T06:47:30;2.53;;;1.60;;
6523;SDS011;3295;38.928;-77.052;2023-06-22T06:49:58;3.03;;;1.60;;
6523;SDS011;3295;38.928;-77.052;2023-06-22T06:52:25;2.33;;;1.30;;
6523;SDS011;3295;38.928;-77.052;2023-06-22T06:54:52;5.53;;;1.30;;
6523;SDS011;3295;38.928;-77.052;2023-06-22T06:57:21;2.87;;;1.57;;
6523;SDS011;3295;38.928;-77.052;2023-06-22T06:59:49;2.30;;;1.50;;
6523;SDS011;3295;38.928;-77.052;2023-06-22T07:02:16;2.97;;;1.37;;
6523;SDS011;3295;38.928;-77.052;2023-06-22T07:04:44;2.17;;;1.50;;
6523;SDS011;3295;38.928;-77.052;2023-06-22T07:07:12;1.40;;;1.30;;
6523;SDS011;3295;38.928;-77.052;2023-06-22T07:09:39;3.00;;;1.20;;
6523;SDS011;3295;38.928;-77.052;2023-06-22T07:12:07;2.17;;;1.47;;
6523;SDS011;3295;38.928;-77.052;2023-06-22T07:14:36;2.00;;;1.43;;
6523;SDS011;3295;38.928;-77.052;2023-06-22T07:17:03;1.70;;;1.40;;
6523;SDS011;3295;38.928;-77.052;2023-06-22T07:19:32;3.87;;;1.87;;
6523;SDS011;3295;38.928;-77.052;2023-06-22T07:21:59;2.93;;;1.67;;
6523;SDS011;3295;38.928;-77.052;2023-06-22T07:24:27;1.57;;;1.40;;
6523;SDS011;3295;38.928;-77.052;2023-06-22T07:26:54;2.53;;;1.40;;
6523;SDS011;3295;38.928;-77.052;2023-06-22T07:29:24;1.87;;;1.40;;
6523;SDS011;3295;38.928;-77.052;2023-06-22T07:31:53;2.40;;;1.70;;
6523;SDS011;3295;38.928;-77.052;2023-06-22T07:34:21;1.90;;;1.50;;
6523;SDS011;3295;38.928;-77.052;2023-06-22T07:36:49;2.80;;;1.67;;
6523;SDS011;3295;38.928;-77.052;2023-06-22T07:39:16;3.33;;;1.73;;
6523;SDS011;3295;38.928;-77.052;2023-06-22T07:41:43;2.40;;;1.60;;
6523;SDS011;3295;38.928;-77.052;2023-06-22T07:44:10;2.90;;;1.80;;
6523;SDS011;3295;38.928;-77.052;2023-06-22T07:46:38;1.80;;;1.40;;
6523;SDS011;3295;38.928;-77.052;2023-06-22T07:49:07;1.90;;;1.27;;
6523;SDS011;3295;38.928;-77.052;2023-06-22T07:51:35;2.07;;;1.47;;
6523;SDS011;3295;38.928;-77.052;2023-06-22T07:54:02;2.43;;;1.50;;
6523;SDS011;3295;38.928;-77.052;2023-06-22T07:56:29;2.60;;;1.60;;
6523;SDS011;3295;38.928;-77.052;2023-06-22T07:58:57;2.53;;;1.63;;
6523;SDS011;3295;38.928;-77.052;2023-06-22T08:01:26;2.37;;;1.70;;
6523;SDS011;3295;38.928;-77.052;2023-06-22T08:03:53;2.10;;;1.50;;
6523;SDS011;3295;38.928;-77.052;2023-06-22T08:06:22;2.97;;;1.67;;
6523;SDS011;3295;38.928;-77.052;2023-06-22T08:08:49;1.87;;;1.40;;
6523;SDS011;3295;38.928;-77.052;2023-06-22T08:11:19;2.53;;;1.50;;
6523;SDS011;3295;38.928;-77.052;2023-06-22T08:13:47;2.17;;;1.50;;
6523;SDS011;3295;38.928;-77.052;2023-06-22T08:16:14;1.80;;;1.60;;
6523;SDS011;3295;38.928;-77.052;2023-06-22T08:18:42;2.87;;;1.70;;
6523;SDS011;3295;38.928;-77.052;2023-06-22T08:21:09;2.03;;;1.30;;
6523;SDS011;3295;38.928;-77.052;2023-06-22T08:23:38;2.00;;;1.40;;
6523;SDS011;3295;38.928;-77.052;2023-06-22T08:26:05;1.97;;;1.47;;
6523;SDS011;3295;38.928;-77.052;2023-06-22T08:28:32;2.53;;;1.50;;
6523;SDS011;3295;38.928;-77.052;2023-06-22T08:31:00;1.87;;;1.30;;
6523;SDS011;3295;38.928;-77.052;2023-06-22T08:33:27;2.37;;;1.53;;
6523;SDS011;3295;38.928;-77.052;2023-06-22T08:35:57;1.60;;;1.30;;
6523;SDS011;3295;38.928;-77.052;2023-06-22T08:38:25;2.10;;;1.40;;
6523;SDS011;3295;38.928;-77.052;2023-06-22T08:40:54;2.57;;;1.60;;
6523;SDS011;3295;38.928;-77.052;2023-06-22T08:43:21;3.10;;;1.70;;
6523;SDS011;3295;38.928;-77.052;2023-06-22T08:45:48;2.17;;;1.53;;
6523;SDS011;3295;38.928;-77.052;2023-06-22T08:48:15;2.47;;;1.53;;
6523;SDS011;3295;38.928;-77.052;2023-06-22T08:50:42;1.70;;;1.40;;
6523;SDS011;3295;38.928;-77.052;2023-06-22T08:53:10;1.83;;;1.43;;
6523;SDS011;3295;38.928;-77.052;2023-06-22T08:55:37;1.70;;;1.20;;
6523;SDS011;3295;38.928;-77.052;2023-06-22T08:58:05;5.83;;;1.60;;
6523;SDS011;3295;38.928;-77.052;2023-06-22T09:00:33;1.83;;;1.20;;
6523;SDS011;3295;38.928;-77.052;2023-06-22T09:03:01;1.77;;;1.40;;
6523;SDS011;3295;38.928;-77.052;2023-06-22T09:05:28;1.67;;;1.23;;
6523;SDS011;3295;38.928;-77.052;2023-06-22T09:07:56;1.30;;;1.10;;
6523;SDS011;3295;38.928;-77.052;2023-06-22T09:10:24;2.50;;;1.20;;
6523;SDS011;3295;38.928;-77.052;2023-06-22T09:12:51;2.67;;;1.13;;
6523;SDS011;3295;38.928;-77.052;2023-06-22T09:15:20;1.20;;;1.10;;
6523;SDS011;3295;38.928;-77.052;2023-06-22T09:17:47;1.30;;;1.20;;
6523;SDS011;3295;38.928;-77.052;2023-06-22T09:20:14;2.00;;;1.13;;
6523;SDS011;3295;38.928;-77.052;2023-06-22T09:22:42;1.70;;;1.27;;
6523;SDS011;3295;38.928;-77.052;2023-06-22T09:25:09;5.33;;;1.73;;
6523;SDS011;3295;38.928;-77.052;2023-06-22T09:27:36;2.70;;;1.40;;
6523;SDS011;3295;38.928;-77.052;2023-06-22T09:30:04;2.90;;;1.27;;
6523;SDS011;3295;38.928;-77.052;2023-06-22T09:32:33;1.27;;;1.13;;
6523;SDS011;3295;38.928;-77.052;2023-06-22T09:35:03;1.60;;;1.20;;
6523;SDS011;3295;38.928;-77.052;2023-06-22T09:37:32;3.00;;;1.30;;
6523;SDS011;3295;38.928;-77.052;2023-06-22T09:39:59;1.27;;;1.17;;
6523;SDS011;3295;38.928;-77.052;2023-06-22T09:42:26;2.87;;;1.30;;
6523;SDS011;3295;38.928;-77.052;2023-06-22T09:44:54;1.43;;;1.03;;
6523;SDS011;3295;38.928;-77.052;2023-06-22T09:47:21;2.60;;;1.10;;
6523;SDS011;3295;38.928;-77.052;2023-06-22T09:49:50;1.13;;;1.00;;
6523;SDS011;3295;38.928;-77.052;2023-06-22T09:52:17;1.30;;;1.07;;
6523;SDS011;3295;38.928;-77.052;2023-06-22T09:54:44;1.80;;;1.40;;
6523;SDS011;3295;38.928;-77.052;2023-06-22T09:57:11;1.67;;;1.10;;
6523;SDS011;3295;38.928;-77.052;2023-06-22T09:59:39;1.93;;;1.10;;
6523;SDS011;3295;38.928;-77.052;2023-06-22T10:02:06;4.63;;;1.13;;
6523;SDS011;3295;38.928;-77.052;2023-06-22T10:04:34;1.03;;;0.97;;
6523;SDS011;3295;38.928;-77.052;2023-06-22T10:07:03;2.50;;;1.20;;
6523;SDS011;3295;38.928;-77.052;2023-06-22T10:09:30;2.50;;;1.20;;
6523;SDS011;3295;38.928;-77.052;2023-06-22T10:11:57;1.87;;;1.03;;
6523;SDS011;3295;38.928;-77.052;2023-06-22T10:14:24;1.23;;;1.10;;
6523;SDS011;3295;38.928;-77.052;2023-06-22T10:16:54;0.93;;;0.90;;
6523;SDS011;3295;38.928;-77.052;2023-06-22T10:19:21;1.10;;;1.00;;
6523;SDS011;3295;38.928;-77.052;2023-06-22T10:21:48;2.93;;;1.10;;
6523;SDS011;3295;38.928;-77.052;2023-06-22T10:24:17;0.97;;;0.90;;
6523;SDS011;3295;38.928;-77.052;2023-06-22T10:26:44;1.30;;;1.10;;
6523;SDS011;3295;38.928;-77.052;2023-06-22T10:29:11;3.00;;;1.10;;
6523;SDS011;3295;38.928;-77.052;2023-06-22T10:31:39;2.13;;;1.30;;
6523;SDS011;3295;38.928;-77.052;2023-06-22T10:34:06;1.23;;;1.03;;
6523;SDS011;3295;38.928;-77.052;2023-06-22T10:36:33;1.97;;;1.07;;
6523;SDS011;3295;38.928;-77.052;2023-06-22T10:39:00;2.37;;;1.00;;
6523;SDS011;3295;38.928;-77.052;2023-06-22T10:41:29;3.90;;;1.00;;
6523;SDS011;3295;38.928;-77.052;2023-06-22T10:43:57;3.13;;;0.90;;
6523;SDS011;3295;38.928;-77.052;2023-06-22T10:46:24;4.33;;;1.10;;
6523;SDS011;3295;38.928;-77.052;2023-06-22T10:48:51;2.47;;;1.20;;
6523;SDS011;3295;38.928;-77.052;2023-06-22T10:51:21;1.23;;;1.03;;
6523;SDS011;3295;38.928;-77.052;2023-06-22T10:53:48;1.60;;;1.00;;
6523;SDS011;3295;38.928;-77.052;2023-06-22T10:56:16;1.20;;;1.00;;
6523;SDS011;3295;38.928;-77.052;2023-06-22T10:58:45;1.43;;;1.10;;
6523;SDS011;3295;38.928;-77.052;2023-06-22T11:01:13;2.20;;;1.07;;
6523;SDS011;3295;38.928;-77.052;2023-06-22T11:03:40;1.00;;;0.97;;
6523;SDS011;3295;38.928;-77.052;2023-06-22T11:06:07;1.27;;;1.10;;
6523;SDS011;3295;38.928;-77.052;2023-06-22T11:08:34;1.23;;;1.00;;
6523;SDS011;3295;38.928;-77.052;2023-06-22T11:11:01;1.00;;;0.90;;
6523;SDS011;3295;38.928;-77.052;2023-06-22T11:13:29;0.93;;;0.90;;
6523;SDS011;3295;38.928;-77.052;2023-06-22T11:15:57;2.03;;;1.17;;
6523;SDS011;3295;38.928;-77.052;2023-06-22T11:18:25;1.27;;;1.17;;
6523;SDS011;3295;38.928;-77.052;2023-06-22T11:20:52;1.30;;;1.00;;
6523;SDS011;3295;38.928;-77.052;2023-06-22T11:23:19;1.20;;;1.00;;
6523;SDS011;3295;38.928;-77.052;2023-06-22T11:25:46;1.93;;;1.10;;
6523;SDS011;3295;38.928;-77.052;2023-06-22T11:28:13;2.47;;;1.10;;
6523;SDS011;3295;38.928;-77.052;2023-06-22T11:30:41;1.93;;;1.00;;
6523;SDS011;3295;38.928;-77.052;2023-06-22T11:33:09;5.27;;;1.10;;
6523;SDS011;3295;38.928;-77.052;2023-06-22T11:35:37;1.30;;;1.00;;
6523;SDS011;3295;38.928;-77.052;2023-06-22T11:38:04;1.17;;;1.07;;
6523;SDS011;3295;38.928;-77.052;2023-06-22T11:40:31;1.27;;;1.00;;
6523;SDS011;3295;38.928;-77.052;2023-06-22T11:42:58;2.83;;;1.30;;
6523;SDS011;3295;38.928;-77.052;2023-06-22T11:45:26;1.50;;;1.17;;
6523;SDS011;3295;38.928;-77.052;2023-06-22T11:47:54;2.07;;;0.90;;
6523;SDS011;3295;38.928;-77.052;2023-06-22T11:50:23;1.10;;;0.93;;
6523;SDS011;3295;38.928;-77.052;2023-06-22T11:52:50;2.13;;;1.10;;
6523;SDS011;3295;38.928;-77.052;2023-06-22T11:55:18;1.90;;;1.00;;
6523;SDS011;3295;38.928;-77.052;2023-06-22T11:57:53;2.33;;;1.10;;
6523;SDS011;3295;38.928;-77.052;2023-06-22T12:00:20;1.30;;;1.20;;
6523;SDS011;3295;38.928;-77.052;2023-06-22T12:02:49;4.90;;;1.10;;
6523;SDS011;3295;38.928;-77.052;2023-06-22T12:05:17;0.87;;;0.87;;
6523;SDS011;3295;38.928;-77.052;2023-06-22T12:07:46;1.63;;;1.10;;
6523;SDS011;3295;38.928;-77.052;2023-06-22T12:10:14;2.13;;;1.13;;
6523;SDS011;3295;38.928;-77.052;2023-06-22T12:12:41;2.03;;;1.40;;
6523;SDS011;3295;38.928;-77.052;2023-06-22T12:15:09;1.10;;;1.00;;
6523;SDS011;3295;38.928;-77.052;2023-06-22T12:17:36;2.77;;;1.17;;
6523;SDS011;3295;38.928;-77.052;2023-06-22T12:20:04;2.67;;;1.50;;
6523;SDS011;3295;38.928;-77.052;2023-06-22T12:22:33;3.53;;;1.10;;
6523;SDS011;3295;38.928;-77.052;2023-06-22T12:25:02;1.13;;;1.00;;
6523;SDS011;3295;38.928;-77.052;2023-06-22T12:27:29;2.00;;;1.10;;
6523;SDS011;3295;38.928;-77.052;2023-06-22T12:29:57;2.07;;;0.87;;
6523;SDS011;3295;38.928;-77.052;2023-06-22T12:32:24;1.87;;;1.20;;
6523;SDS011;3295;38.928;-77.052;2023-06-22T12:34:52;1.13;;;1.00;;
6523;SDS011;3295;38.928;-77.052;2023-06-22T12:37:19;1.33;;;1.20;;
6523;SDS011;3295;38.928;-77.052;2023-06-22T12:39:46;0.93;;;0.90;;
6523;SDS011;3295;38.928;-77.052;2023-06-22T12:42:16;1.90;;;1.17;;
6523;SDS011;3295;38.928;-77.052;2023-06-22T12:44:43;1.20;;;1.00;;
6523;SDS011;3295;38.928;-77.052;2023-06-22T12:47:10;1.20;;;1.10;;
6523;SDS011;3295;38.928;-77.052;2023-06-22T12:49:38;2.13;;;1.10;;
6523;SDS011;3295;38.928;-77.052;2023-06-22T12:52:08;1.00;;;0.90;;
6523;SDS011;3295;38.928;-77.052;2023-06-22T12:54:36;1.70;;;1.00;;
6523;SDS011;3295;38.928;-77.052;2023-06-22T12:57:04;2.60;;;1.10;;
6523;SDS011;3295;38.928;-77.052;2023-06-22T12:59:33;1.43;;;1.00;;
6523;SDS011;3295;38.928;-77.052;2023-06-22T13:02:00;0.90;;;0.90;;
6523;SDS011;3295;38.928;-77.052;2023-06-22T13:04:27;1.40;;;0.97;;
6523;SDS011;3295;38.928;-77.052;2023-06-22T13:06:54;2.77;;;1.00;;
6523;SDS011;3295;38.928;-77.052;2023-06-22T13:09:21;1.00;;;0.90;;
6523;SDS011;3295;38.928;-77.052;2023-06-22T13:11:49;1.10;;;1.00;;
6523;SDS011;3295;38.928;-77.052;2023-06-22T13:14:17;0.80;;;0.80;;
6523;SDS011;3295;38.928;-77.052;2023-06-22T13:16:46;0.90;;;0.90;;
6523;SDS011;3295;38.928;-77.052;2023-06-22T13:19:13;0.70;;;0.70;;
6523;SDS011;3295;38.928;-77.052;2023-06-22T13:21:41;1.00;;;0.90;;
6523;SDS011;3295;38.928;-77.052;2023-06-22T13:24:08;0.90;;;0.80;;
6523;SDS011;3295;38.928;-77.052;2023-06-22T13:26:35;1.30;;;1.07;;
6523;SDS011;3295;38.928;-77.052;2023-06-22T13:29:03;1.33;;;1.00;;
6523;SDS011;3295;38.928;-77.052;2023-06-22T13:31:30;0.90;;;0.90;;
6523;SDS011;3295;38.928;-77.052;2023-06-22T13:33:59;1.00;;;0.90;;
6523;SDS011;3295;38.928;-77.052;2023-06-22T13:36:26;1.17;;;1.00;;
6523;SDS011;3295;38.928;-77.052;2023-06-22T13:38:56;1.47;;;1.10;;
6523;SDS011;3295;38.928;-77.052;2023-06-22T13:41:23;1.10;;;1.00;;
6523;SDS011;3295;38.928;-77.052;2023-06-22T13:43:50;0.90;;;0.90;;
6523;SDS011;3295;38.928;-77.052;2023-06-22T13:46:17;1.13;;;1.03;;
6523;SDS011;3295;38.928;-77.052;2023-06-22T13:48:45;1.07;;;0.87;;
6523;SDS011;3295;38.928;-77.052;2023-06-22T13:51:13;0.90;;;0.90;;
6523;SDS011;3295;38.928;-77.052;2023-06-22T13:53:40;1.23;;;0.97;;
6523;SDS011;3295;38.928;-77.052;2023-06-22T13:56:08;1.50;;;1.10;;
6523;SDS011;3295;38.928;-77.052;2023-06-22T13:58:35;1.13;;;0.93;;
6523;SDS011;3295;38.928;-77.052;2023-06-22T14:01:02;0.90;;;0.90;;
6523;SDS011;3295;38.928;-77.052;2023-06-22T14:03:30;1.03;;;1.00;;
6523;SDS011;3295;38.928;-77.052;2023-06-22T14:05:57;1.10;;;1.03;;
6523;SDS011;3295;38.928;-77.052;2023-06-22T14:08:26;1.13;;;1.00;;
6523;SDS011;3295;38.928;-77.052;2023-06-22T14:10:53;2.30;;;1.10;;
6523;SDS011;3295;38.928;-77.052;2023-06-22T14:13:20;1.03;;;0.93;;
6523;SDS011;3295;38.928;-77.052;2023-06-22T14:15:48;1.20;;;0.90;;
6523;SDS011;3295;38.928;-77.052;2023-06-22T14:18:17;1.10;;;1.00;;
6523;SDS011;3295;38.928;-77.052;2023-06-22T14:20:44;0.97;;;0.87;;
6523;SDS011;3295;38.928;-77.052;2023-06-22T14:23:13;1.10;;;1.00;;
6523;SDS011;3295;38.928;-77.052;2023-06-22T14:25:42;1.10;;;0.90;;
6523;SDS011;3295;38.928;-77.052;2023-06-22T14:28:09;3.50;;;1.00;;
6523;SDS011;3295;38.928;-77.052;2023-06-22T14:30:36;1.60;;;1.20;;
6523;SDS011;3295;38.928;-77.052;2023-06-22T14:33:03;2.23;;;0.97;;
6523;SDS011;3295;38.928;-77.052;2023-06-22T14:35:31;1.00;;;0.93;;
6523;SDS011;3295;38.928;-77.052;2023-06-22T14:37:58;1.10;;;1.00;;
6523;SDS011;3295;38.928;-77.052;2023-06-22T14:40:25;1.53;;;1.13;;
6523;SDS011;3295;38.928;-77.052;2023-06-22T14:42:54;2.03;;;1.30;;
6523;SDS011;3295;38.928;-77.052;2023-06-22T14:45:22;1.33;;;0.93;;
6523;SDS011;3295;38.928;-77.052;2023-06-22T14:47:49;1.30;;;1.20;;
6523;SDS011;3295;38.928;-77.052;2023-06-22T14:50:17;1.67;;;1.07;;
6523;SDS011;3295;38.928;-77.052;2023-06-22T14:52:44;1.20;;;1.00;;